Time;durP1;ratioP1;P1;durP2;ratioP2;P2;SDS_P1;SDS_P2;PMS_P1;PMS_P2;Temp;Humidity;BMP_temperature;BMP_pressure;BME280_temperature;BME280_humidity;BME280_pressure;Samples;Min_cycle;Max_cycle;Signal;HPM_P1;HPM_P2
2022/10/19 00:00:29;;;;;;;8.57;3.60;;;-20.60;99.90;;;;;;5035963;28;20209;-80
2022/10/19 00:02:55;;;;;;;5.73;4.50;;;-18.00;99.90;;;;;;5032071;28;20611;-84
2022/10/19 00:05:21;;;;;;;7.73;3.87;;;-19.20;99.90;;;;;;5035969;28;20189;-84
2022/10/19 00:07:47;;;;;;;7.10;4.10;;;-17.10;99.90;;;;;;5020075;28;20188;-84
2022/10/19 00:10:12;;;;;;;19.73;5.10;;;-19.80;99.90;;;;;;5031784;28;20195;-79
2022/10/19 00:12:38;;;;;;;7.97;4.17;;;-20.50;99.90;;;;;;5026939;28;20185;-83
2022/10/19 00:15:05;;;;;;;10.53;4.27;;;-18.40;99.90;;;;;;5027279;28;20185;-83
2022/10/19 00:17:31;;;;;;;7.73;3.93;;;-18.40;99.90;;;;;;5025292;28;20213;-84
2022/10/19 00:19:56;;;;;;;8.97;4.70;;;-16.40;99.90;;;;;;5032988;28;20231;-79
2022/10/19 00:22:22;;;;;;;15.57;6.43;;;-17.80;99.90;;;;;;5033068;28;20188;-82
2022/10/19 00:24:48;;;;;;;13.57;4.73;;;-16.30;99.90;;;;;;5047216;28;20189;-84
2022/10/19 00:27:13;;;;;;;9.07;4.20;;;-16.20;99.90;;;;;;5037002;28;20220;-83
2022/10/19 00:29:39;;;;;;;7.80;5.03;;;-17.80;99.90;;;;;;5038517;28;20856;-84
2022/10/19 00:32:05;;;;;;;8.87;4.33;;;-18.70;99.90;;;;;;5029205;28;20217;-86
2022/10/19 00:34:30;;;;;;;10.43;5.07;;;-16.30;99.90;;;;;;5031169;28;20185;-86
2022/10/19 00:36:56;;;;;;;9.27;4.50;;;-19.80;99.90;;;;;;5034088;28;20229;-85
2022/10/19 00:39:22;;;;;;;8.80;4.50;;;-18.90;99.90;;;;;;5046579;28;20195;-82
2022/10/19 00:41:48;;;;;;;13.17;4.40;;;-21.20;99.90;;;;;;5022841;28;20245;-86
2022/10/19 00:44:14;;;;;;;12.80;6.93;;;-19.60;99.90;;;;;;5039884;28;20212;-89
2022/10/19 00:46:46;;;;;;;6.93;4.73;;;-18.90;99.90;;;;;;5027250;28;20319;-87
2022/10/19 00:49:21;;;;;;;15.60;4.83;;;-17.20;99.90;;;;;;5032103;28;20192;-87
2022/10/19 00:51:55;;;;;;;5.40;4.50;;;-19.10;99.90;;;;;;5033744;28;20195;-86
2022/10/19 00:54:23;;;;;;;6.40;4.70;;;-19.10;99.90;;;;;;5041895;28;20188;-83
2022/10/19 00:56:50;;;;;;;12.23;4.93;;;-17.40;99.90;;;;;;5022157;28;20212;-83
2022/10/19 00:59:24;;;;;;;11.40;4.80;;;-18.80;99.90;;;;;;5026661;28;20193;-84
2022/10/19 01:01:51;;;;;;;15.97;5.33;;;-20.20;99.90;;;;;;5024085;28;20213;-83
2022/10/19 01:04:20;;;;;;;13.63;4.60;;;-20.10;99.90;;;;;;5036622;28;20211;-81
2022/10/19 01:06:46;;;;;;;8.40;4.60;;;-21.90;99.90;;;;;;5035860;28;20496;-83
2022/10/19 01:09:12;;;;;;;16.57;4.50;;;-20.70;99.90;;;;;;5031690;28;20188;-82
2022/10/19 01:11:56;;;;;;;11.47;4.83;;;-21.30;99.90;;;;;;5037786;28;20192;-79
2022/10/19 01:15:03;;;;;;;7.83;4.43;;;-21.90;99.90;;;;;;5021659;28;20267;-77
2022/10/19 01:17:29;;;;;;;7.90;4.60;;;-20.50;99.90;;;;;;5012326;28;20283;-74
2022/10/19 01:20:20;;;;;;;11.67;5.27;;;-20.00;99.90;;;;;;5028952;28;20183;-84
2022/10/19 01:22:54;;;;;;;7.23;4.63;;;-22.60;99.90;;;;;;5031909;28;20283;-86
2022/10/19 01:25:26;;;;;;;10.60;5.33;;;-22.20;99.90;;;;;;5044044;28;20499;-76
2022/10/19 01:28:10;;;;;;;17.73;5.70;;;-18.90;99.90;;;;;;5029199;28;20201;-86
2022/10/19 01:31:19;;;;;;;4.93;3.97;;;-18.30;99.90;;;;;;5038418;28;20588;-85
2022/10/19 01:33:57;;;;;;;7.40;4.73;;;-19.00;99.90;;;;;;5008052;28;20193;-83
2022/10/19 01:36:40;;;;;;;14.67;4.73;;;-18.20;99.90;;;;;;5028752;28;20232;-85
2022/10/19 01:39:20;;;;;;;14.67;5.20;;;-21.80;99.90;;;;;;5017464;28;20591;-85
2022/10/19 01:42:10;;;;;;;8.57;4.87;;;-19.90;99.90;;;;;;5028123;28;20264;-74
2022/10/19 01:44:48;;;;;;;12.33;5.03;;;-17.10;99.90;;;;;;5028882;28;20192;-83
2022/10/19 01:47:32;;;;;;;10.73;4.87;;;-19.30;99.90;;;;;;5039667;28;20192;-82
2022/10/19 01:50:08;;;;;;;7.67;4.20;;;-17.60;99.90;;;;;;5032174;28;20187;-85
2022/10/19 01:52:36;;;;;;;22.10;5.27;;;-18.50;99.90;;;;;;5040695;28;20627;-80
2022/10/19 01:55:03;;;;;;;8.93;5.93;;;-20.10;99.90;;;;;;5028510;28;20185;-81
2022/10/19 01:57:39;;;;;;;9.73;4.77;;;-18.60;99.90;;;;;;5036894;28;20473;-86
2022/10/19 02:00:08;;;;;;;19.97;4.90;;;-18.90;99.90;;;;;;5036504;28;20211;-82
2022/10/19 02:02:37;;;;;;;8.33;5.50;;;-18.90;99.90;;;;;;5024221;28;20193;-76
2022/10/19 02:05:04;;;;;;;16.27;5.50;;;-19.60;99.90;;;;;;5043723;28;20216;-80
2022/10/19 02:07:31;;;;;;;10.57;4.60;;;-18.40;99.90;;;;;;5018069;28;20197;-77
2022/10/19 02:09:57;;;;;;;17.73;5.20;;;-19.40;99.90;;;;;;5026529;28;20227;-79
2022/10/19 02:12:25;;;;;;;11.30;5.60;;;-19.90;99.90;;;;;;5025012;28;20234;-84
2022/10/19 02:14:56;;;;;;;12.00;4.27;;;-18.40;99.90;;;;;;5033389;28;20574;-84
2022/10/19 02:17:32;;;;;;;10.43;5.43;;;-19.50;99.90;;;;;;5028297;28;20569;-77
2022/10/19 02:19:59;;;;;;;10.17;5.33;;;-16.60;99.90;;;;;;5021525;28;20202;-76
2022/10/19 02:22:25;;;;;;;16.97;5.73;;;-17.10;99.90;;;;;;5030745;28;20180;-80
2022/10/19 02:24:50;;;;;;;11.20;5.10;;;-16.80;99.90;;;;;;5026607;28;20184;-72
2022/10/19 02:27:17;;;;;;;11.20;4.10;;;-17.20;99.90;;;;;;5023951;28;20216;-83
2022/10/19 02:29:44;;;;;;;9.40;5.70;;;-16.20;99.90;;;;;;5025278;28;20565;-78
2022/10/19 02:32:11;;;;;;;13.67;5.07;;;-15.40;99.90;;;;;;5028383;28;20243;-82
2022/10/19 02:34:37;;;;;;;14.20;5.07;;;-18.20;99.90;;;;;;5035177;28;20223;-78
2022/10/19 02:37:04;;;;;;;13.70;5.27;;;-18.60;99.90;;;;;;5030809;28;20250;-77
2022/10/19 02:39:30;;;;;;;13.07;5.13;;;-19.00;99.90;;;;;;5036169;28;20195;-82
2022/10/19 02:42:14;;;;;;;13.17;6.03;;;-18.10;99.90;;;;;;5017865;28;20185;-80
2022/10/19 02:44:43;;;;;;;14.23;5.83;;;-17.70;99.90;;;;;;5042532;28;20184;-83
2022/10/19 02:47:23;;;;;;;7.67;5.53;;;-17.60;99.90;;;;;;5031605;28;20591;-81
2022/10/19 02:49:50;;;;;;;12.67;5.40;;;-18.90;99.90;;;;;;5042941;28;20279;-86
2022/10/19 02:52:16;;;;;;;24.40;6.13;;;-19.10;99.90;;;;;;5030398;28;20610;-74
2022/10/19 02:54:44;;;;;;;12.83;6.10;;;-20.50;99.90;;;;;;5029050;28;20184;-81
2022/10/19 02:57:21;;;;;;;12.70;6.30;;;-20.70;99.90;;;;;;5025036;28;20215;-85
2022/10/19 02:59:47;;;;;;;10.97;6.73;;;-19.60;99.90;;;;;;5041647;28;20270;-88
2022/10/19 03:02:14;;;;;;;13.40;6.30;;;-18.80;99.90;;;;;;5024463;28;20201;-79
2022/10/19 03:04:44;;;;;;;10.20;6.03;;;-15.70;99.90;;;;;;5031011;28;20294;-87
2022/10/19 03:07:11;;;;;;;16.23;8.57;;;-18.10;99.90;;;;;;5023102;28;20548;-82
2022/10/19 03:09:37;;;;;;;9.57;6.03;;;-17.70;99.90;;;;;;5026930;28;20184;-85
2022/10/19 03:12:03;;;;;;;12.40;6.70;;;-17.80;99.90;;;;;;5037232;28;20188;-84
2022/10/19 03:14:29;;;;;;;17.50;6.87;;;-18.00;99.90;;;;;;5027299;28;20185;-80
2022/10/19 03:16:54;;;;;;;7.57;6.13;;;-16.90;99.90;;;;;;5041131;28;20610;-85
2022/10/19 03:19:20;;;;;;;16.60;6.10;;;-17.30;99.90;;;;;;5033129;28;20183;-76
2022/10/19 03:21:47;;;;;;;6.53;5.93;;;-17.80;99.90;;;;;;5032371;28;20185;-77
2022/10/19 03:24:13;;;;;;;19.53;7.13;;;-20.40;99.90;;;;;;5027860;28;20483;-80
2022/10/19 03:26:38;;;;;;;11.60;6.50;;;-22.70;99.90;;;;;;5029739;28;20199;-79
2022/10/19 03:29:04;;;;;;;12.97;6.67;;;-17.80;99.90;;;;;;5026775;28;20268;-86
2022/10/19 03:31:30;;;;;;;13.27;6.40;;;-19.20;99.90;;;;;;5039087;28;20243;-80
2022/10/19 03:33:55;;;;;;;12.93;5.63;;;-17.60;99.90;;;;;;5028151;28;20208;-73
2022/10/19 03:36:23;;;;;;;18.33;7.07;;;-20.40;99.90;;;;;;5021270;28;20216;-82
2022/10/19 03:38:53;;;;;;;14.17;6.73;;;-18.10;99.90;;;;;;5027640;28;20196;-84
2022/10/19 03:41:20;;;;;;;11.20;7.60;;;-17.50;99.90;;;;;;5037545;28;20477;-73
2022/10/19 03:43:46;;;;;;;11.57;6.30;;;-18.80;99.90;;;;;;5043215;28;20265;-71
2022/10/19 03:46:13;;;;;;;15.17;8.50;;;-17.60;99.90;;;;;;5049970;28;20192;-72
2022/10/19 03:48:39;;;;;;;16.17;7.60;;;-18.20;99.90;;;;;;5039867;28;20183;-86
2022/10/19 03:51:12;;;;;;;20.97;8.13;;;-18.40;99.90;;;;;;5044648;28;20208;-84
2022/10/19 03:53:39;;;;;;;15.43;8.17;;;-16.20;99.90;;;;;;5047265;28;20265;-86
2022/10/19 03:56:14;;;;;;;22.33;7.93;;;-17.50;99.90;;;;;;5034751;28;20196;-85
2022/10/19 03:58:42;;;;;;;31.30;7.60;;;-17.30;99.90;;;;;;5055554;28;20176;-80
2022/10/19 04:01:12;;;;;;;9.43;6.70;;;-17.20;99.90;;;;;;5026590;28;20215;-82
2022/10/19 04:03:37;;;;;;;27.40;9.47;;;-17.60;99.90;;;;;;5043328;28;20276;-77
2022/10/19 04:06:05;;;;;;;19.67;8.50;;;-16.10;99.90;;;;;;5029571;28;20567;-77
2022/10/19 04:08:31;;;;;;;12.70;8.23;;;-17.90;99.90;;;;;;5036220;28;20272;-76
2022/10/19 04:11:02;;;;;;;10.03;6.83;;;-19.40;99.90;;;;;;5030519;28;20190;-75
2022/10/19 04:13:28;;;;;;;8.33;6.70;;;-21.80;99.90;;;;;;5035747;28;20211;-72
2022/10/19 04:15:54;;;;;;;17.70;8.60;;;-19.20;99.90;;;;;;5026785;28;20238;-71
2022/10/19 04:18:20;;;;;;;16.37;8.37;;;-21.20;99.90;;;;;;5041451;28;20180;-73
2022/10/19 04:20:46;;;;;;;14.97;7.83;;;-15.80;99.90;;;;;;5033690;28;20181;-74
2022/10/19 04:23:12;;;;;;;13.17;7.77;;;-18.40;99.90;;;;;;5026302;28;20184;-72
2022/10/19 04:25:37;;;;;;;20.77;8.37;;;-19.20;99.90;;;;;;5028667;28;20187;-82
2022/10/19 04:28:03;;;;;;;20.37;7.80;;;-20.50;99.90;;;;;;5035004;28;20188;-76
2022/10/19 04:30:29;;;;;;;14.17;7.50;;;-16.90;99.90;;;;;;5029974;28;20187;-73
2022/10/19 04:32:54;;;;;;;19.40;8.57;;;-19.20;99.90;;;;;;5025878;28;20189;-81
2022/10/19 04:35:20;;;;;;;15.17;8.97;;;-19.10;99.90;;;;;;5042173;28;20180;-78
2022/10/19 04:37:46;;;;;;;28.83;8.07;;;-17.70;99.90;;;;;;5025776;28;20205;-83
2022/10/19 04:40:12;;;;;;;10.27;8.13;;;-17.00;99.90;;;;;;5035664;28;20204;-79
2022/10/19 04:42:37;;;;;;;14.23;8.57;;;-16.90;99.90;;;;;;5019902;28;20185;-77
2022/10/19 04:45:03;;;;;;;20.13;8.43;;;-17.40;99.90;;;;;;5050216;28;20176;-75
2022/10/19 04:47:29;;;;;;;18.50;8.43;;;-17.80;99.90;;;;;;5048184;28;20615;-77
2022/10/19 04:49:55;;;;;;;16.40;8.70;;;-17.50;99.90;;;;;;5051663;28;20192;-75
2022/10/19 04:52:21;;;;;;;15.30;9.47;;;-15.40;99.90;;;;;;5039396;28;20192;-82
2022/10/19 04:54:46;;;;;;;10.67;6.90;;;-18.30;99.90;;;;;;5038195;28;20185;-84
2022/10/19 04:57:12;;;;;;;8.87;7.77;;;-15.60;99.90;;;;;;5043440;28;20260;-80
2022/10/19 04:59:38;;;;;;;10.37;7.50;;;-15.50;99.90;;;;;;5034983;28;20271;-76
2022/10/19 05:02:05;;;;;;;13.20;7.90;;;-14.80;99.90;;;;;;5033856;28;20200;-74
2022/10/19 05:04:30;;;;;;;15.00;9.00;;;-15.80;99.90;;;;;;5056924;28;20187;-82
2022/10/19 05:06:56;;;;;;;20.90;9.30;;;-15.90;99.90;;;;;;5040446;28;20211;-82
2022/10/19 05:09:22;;;;;;;15.23;10.43;;;-18.70;99.90;;;;;;5033066;28;20196;-76
2022/10/19 05:11:49;;;;;;;14.93;8.90;;;-18.30;99.90;;;;;;5037609;28;20191;-75
2022/10/19 05:14:15;;;;;;;16.00;8.17;;;-19.20;99.90;;;;;;5043684;28;20182;-80
2022/10/19 05:16:41;;;;;;;11.53;8.73;;;-17.30;99.90;;;;;;5022106;28;20218;-77
2022/10/19 05:19:11;;;;;;;18.83;8.80;;;-16.80;99.90;;;;;;5028378;28;20195;-83
2022/10/19 05:21:37;;;;;;;13.50;8.60;;;-18.90;99.90;;;;;;5034148;28;20193;-82
2022/10/19 05:24:02;;;;;;;12.53;9.83;;;-21.30;99.90;;;;;;5032071;28;20176;-81
2022/10/19 05:26:29;;;;;;;15.80;10.67;;;-23.90;99.90;;;;;;5037786;28;20248;-83
2022/10/19 05:29:00;;;;;;;21.67;9.80;;;-19.30;99.90;;;;;;5035051;28;20226;-83
2022/10/19 05:31:28;;;;;;;18.77;10.20;;;-20.40;99.90;;;;;;5016700;28;20196;-80
2022/10/19 05:33:57;;;;;;;19.60;10.60;;;-18.70;99.90;;;;;;5039478;28;20216;-83
2022/10/19 05:36:25;;;;;;;14.00;9.40;;;-19.40;99.90;;;;;;5022834;28;20262;-75
2022/10/19 05:38:52;;;;;;;19.83;10.73;;;-19.50;99.90;;;;;;5025650;28;20175;-71
2022/10/19 05:41:19;;;;;;;31.10;10.77;;;-21.10;99.90;;;;;;5027730;28;20603;-77
2022/10/19 05:43:46;;;;;;;13.53;9.90;;;-19.10;99.90;;;;;;5031568;28;20188;-74
2022/10/19 05:46:16;;;;;;;23.90;9.77;;;-19.40;99.90;;;;;;5032784;28;20233;-77
2022/10/19 05:48:42;;;;;;;16.90;9.37;;;-16.60;99.90;;;;;;5025112;28;20188;-73
2022/10/19 05:51:12;;;;;;;19.17;10.00;;;-18.80;99.90;;;;;;5037370;28;20191;-79
2022/10/19 05:53:38;;;;;;;17.57;10.77;;;-22.60;99.90;;;;;;5034672;28;20550;-77
2022/10/19 05:56:05;;;;;;;14.20;9.77;;;-20.30;99.90;;;;;;5025002;28;20235;-79
2022/10/19 05:58:32;;;;;;;15.63;9.77;;;-18.10;99.90;;;;;;5028221;28;20280;-78
2022/10/19 06:00:59;;;;;;;20.37;10.07;;;-19.20;99.90;;;;;;5020727;28;20529;-74
2022/10/19 06:03:26;;;;;;;18.87;11.10;;;-17.30;99.90;;;;;;5032866;28;20200;-74
2022/10/19 06:05:52;;;;;;;17.37;11.00;;;-17.00;99.90;;;;;;5018093;28;20245;-78
2022/10/19 06:08:19;;;;;;;19.10;10.40;;;-15.60;99.90;;;;;;5027598;28;20230;-77
2022/10/19 06:10:45;;;;;;;15.37;11.27;;;-16.60;99.90;;;;;;5035061;28;20196;-76
2022/10/19 06:13:12;;;;;;;17.23;11.80;;;-16.00;99.90;;;;;;5027152;28;20183;-75
2022/10/19 06:15:39;;;;;;;27.33;11.37;;;-18.40;99.90;;;;;;5033876;28;20517;-80
2022/10/19 06:18:11;;;;;;;17.17;9.73;;;-17.90;99.90;;;;;;5029588;28;20608;-86
2022/10/19 06:20:39;;;;;;;25.77;10.77;;;-18.60;99.90;;;;;;5027176;28;20175;-84
2022/10/19 06:23:06;;;;;;;18.53;10.37;;;-19.30;99.90;;;;;;5035179;28;20605;-83
2022/10/19 06:25:33;;;;;;;17.47;10.03;;;-20.30;99.90;;;;;;5026688;28;20549;-79
2022/10/19 06:27:59;;;;;;;16.97;11.33;;;-20.10;99.90;;;;;;5035554;28;20246;-79
2022/10/19 06:30:25;;;;;;;22.50;11.97;;;-18.50;99.90;;;;;;5039051;28;20469;-84
2022/10/19 06:32:51;;;;;;;20.53;9.60;;;-16.70;99.90;;;;;;5038109;28;20270;-76
2022/10/19 06:35:17;;;;;;;17.20;10.30;;;-16.30;99.90;;;;;;5033392;28;20268;-77
2022/10/19 06:37:43;;;;;;;16.13;10.70;;;-18.20;99.90;;;;;;5020474;28;20278;-86
2022/10/19 06:40:09;;;;;;;18.93;11.53;;;-17.70;99.90;;;;;;5034318;28;20195;-85
2022/10/19 06:42:38;;;;;;;21.67;10.37;;;-18.50;99.90;;;;;;5034428;28;20183;-81
2022/10/19 06:45:08;;;;;;;27.13;11.53;;;-17.10;99.90;;;;;;5024640;28;20181;-75
2022/10/19 06:47:34;;;;;;;18.40;10.33;;;-17.90;99.90;;;;;;5030724;28;20184;-74
2022/10/19 06:50:01;;;;;;;23.33;11.23;;;-17.50;99.90;;;;;;5034212;28;20495;-78
2022/10/19 06:52:26;;;;;;;17.33;9.83;;;-18.30;99.90;;;;;;5028620;28;20193;-71
2022/10/19 06:54:52;;;;;;;21.17;12.47;;;-17.30;99.90;;;;;;5030983;28;20309;-72
2022/10/19 06:57:18;;;;;;;25.50;10.13;;;-18.30;99.90;;;;;;5030891;28;20253;-83
2022/10/19 06:59:43;;;;;;;22.07;10.90;;;-17.50;99.90;;;;;;5044026;28;20740;-73
2022/10/19 07:02:11;;;;;;;15.10;10.93;;;-15.70;99.90;;;;;;5024991;28;20193;-76
2022/10/19 07:04:37;;;;;;;23.50;13.70;;;-18.20;99.90;;;;;;5026178;28;21567;-74
2022/10/19 07:07:03;;;;;;;25.47;13.23;;;-18.20;99.90;;;;;;5019922;28;20595;-72
2022/10/19 07:09:28;;;;;;;21.00;11.63;;;-17.70;99.90;;;;;;5023059;28;20178;-70
2022/10/19 07:11:54;;;;;;;16.43;11.27;;;-16.00;99.90;;;;;;5026479;28;20480;-78
2022/10/19 07:14:23;;;;;;;29.53;12.27;;;-21.20;99.90;;;;;;5027657;28;20191;-70
2022/10/19 07:16:49;;;;;;;18.20;10.87;;;-18.80;99.90;;;;;;5045822;28;20329;-83
2022/10/19 07:19:15;;;;;;;21.87;11.60;;;-21.80;99.90;;;;;;5026489;28;20191;-80
2022/10/19 07:21:42;;;;;;;17.73;12.03;;;-23.60;99.90;;;;;;5033457;28;20263;-70
2022/10/19 07:24:08;;;;;;;13.70;10.43;;;-24.60;99.90;;;;;;5034148;28;20187;-74
2022/10/19 07:26:34;;;;;;;22.17;11.27;;;-23.40;99.90;;;;;;5033757;28;20209;-82
2022/10/19 07:29:01;;;;;;;23.20;11.63;;;-21.70;99.90;;;;;;5033897;28;20218;-80
2022/10/19 07:31:28;;;;;;;17.13;12.07;;;-27.80;99.90;;;;;;5032017;28;20686;-81
2022/10/19 07:33:59;;;;;;;18.40;11.33;;;-20.50;99.90;;;;;;5030041;28;20194;-80
2022/10/19 07:36:27;;;;;;;16.03;11.40;;;-22.80;99.90;;;;;;5034254;28;20566;-78
2022/10/19 07:38:53;;;;;;;20.53;12.47;;;-20.70;99.90;;;;;;5021709;28;20182;-80
2022/10/19 07:41:21;;;;;;;26.83;12.93;;;-21.40;99.90;;;;;;5030629;28;20584;-72
2022/10/19 07:43:48;;;;;;;25.00;13.33;;;-19.50;99.90;;;;;;5032528;28;20169;-78
2022/10/19 07:46:16;;;;;;;27.23;13.40;;;-22.10;99.90;;;;;;5034733;28;20274;-77
2022/10/19 07:48:42;;;;;;;28.67;13.20;;;-23.80;99.90;;;;;;5021150;28;20189;-74
2022/10/19 07:51:10;;;;;;;17.53;12.40;;;-23.60;99.90;;;;;;5033502;28;20537;-78
2022/10/19 07:53:36;;;;;;;21.40;13.23;;;-22.90;99.90;;;;;;5016056;28;20224;-79
2022/10/19 07:56:07;;;;;;;18.87;12.93;;;-22.80;99.90;;;;;;5028603;28;20212;-75
2022/10/19 07:58:33;;;;;;;24.97;13.43;;;-23.20;99.90;;;;;;5029933;28;20291;-79
2022/10/19 08:01:12;;;;;;;21.27;12.10;;;-19.10;99.90;;;;;;5045112;28;20266;-81
2022/10/19 08:03:39;;;;;;;21.50;10.87;;;-21.40;99.90;;;;;;5020181;28;20188;-81
2022/10/19 08:06:08;;;;;;;29.37;15.80;;;-24.80;99.90;;;;;;5022576;28;20189;-85
2022/10/19 08:08:35;;;;;;;22.37;11.17;;;-23.50;99.90;;;;;;5023835;28;20180;-82
2022/10/19 08:11:20;;;;;;;16.23;11.00;;;-26.60;99.90;;;;;;5034345;28;20231;-76
2022/10/19 08:13:46;;;;;;;17.93;12.03;;;-24.40;99.90;;;;;;5039300;28;20563;-84
2022/10/19 08:16:40;;;;;;;17.57;11.10;;;-18.30;99.90;;;;;;5026144;28;20331;-78
2022/10/19 08:19:09;;;;;;;16.47;12.60;;;-20.90;99.90;;;;;;5044676;28;20205;-85
2022/10/19 08:21:36;;;;;;;17.80;12.03;;;-21.80;99.90;;;;;;5031783;28;20235;-87
2022/10/19 08:24:02;;;;;;;16.10;12.10;;;-21.30;99.90;;;;;;5049322;28;20486;-75
2022/10/19 08:26:29;;;;;;;25.57;12.30;;;-21.50;99.90;;;;;;5024115;28;20191;-76
2022/10/19 08:29:03;;;;;;;16.57;11.87;;;-24.70;99.90;;;;;;5032300;28;20871;-80
2022/10/19 08:31:29;;;;;;;16.17;11.07;;;-26.30;99.90;;;;;;5037062;28;20216;-75
2022/10/19 08:33:55;;;;;;;15.13;10.17;;;-25.40;99.90;;;;;;5033625;28;20497;-77
2022/10/19 08:36:21;;;;;;;16.77;10.87;;;-23.60;99.90;;;;;;5037994;28;20209;-78
2022/10/19 08:38:48;;;;;;;15.33;10.53;;;-23.00;99.90;;;;;;5030572;28;20172;-81
2022/10/19 08:41:28;;;;;;;16.13;10.10;;;-24.30;99.90;;;;;;5028135;28;20185;-80
2022/10/19 08:44:02;;;;;;;14.93;10.73;;;-25.40;99.90;;;;;;5030864;28;20457;-82
2022/10/19 08:46:53;;;;;;;18.73;11.57;;;-27.40;99.90;;;;;;5035471;28;20189;-76
2022/10/19 08:49:23;;;;;;;17.50;10.83;;;-25.90;99.90;;;;;;5030497;28;20200;-72
2022/10/19 08:51:56;;;;;;;17.63;12.23;;;-21.60;99.90;;;;;;5032105;28;20188;-70
2022/10/19 08:54:23;;;;;;;19.53;11.37;;;-25.00;99.90;;;;;;5033516;28;20192;-79
2022/10/19 08:57:10;;;;;;;21.43;11.97;;;-27.00;99.90;;;;;;5033895;28;20242;-72
2022/10/19 08:59:58;;;;;;;15.73;11.07;;;-27.80;99.90;;;;;;5031184;28;20188;-75
2022/10/19 09:02:52;;;;;;;18.90;10.63;;;-32.90;99.90;;;;;;5030749;28;20552;-70
2022/10/19 09:05:23;;;;;;;15.53;11.67;;;-31.90;99.90;;;;;;5028737;28;20188;-70
2022/10/19 09:07:52;;;;;;;16.23;11.83;;;-37.40;99.90;;;;;;5027690;28;20281;-72
2022/10/19 09:10:33;;;;;;;15.37;11.90;;;-32.40;99.90;;;;;;5029267;28;20247;-76
2022/10/19 09:13:04;;;;;;;17.67;12.00;;;-34.20;99.90;;;;;;5032488;28;20282;-72
2022/10/19 09:15:45;;;;;;;19.77;12.23;;;-30.80;99.90;;;;;;5030366;28;20179;-71
2022/10/19 09:18:24;;;;;;;18.70;10.80;;;-31.60;99.90;;;;;;5029733;28;20295;-71
2022/10/19 09:21:15;;;;;;;17.67;11.07;;;-31.70;99.90;;;;;;5028996;28;20218;-79
2022/10/19 09:23:49;;;;;;;19.03;10.47;;;-32.90;99.90;;;;;;5031507;28;20451;-72
2022/10/19 09:26:22;;;;;;;23.20;10.63;;;-35.10;99.90;;;;;;5030956;28;20466;-75
2022/10/19 09:29:15;;;;;;;15.10;10.83;;;-32.70;99.90;;;;;;5031506;28;20254;-77
2022/10/19 09:31:44;;;;;;;17.83;10.47;;;-30.80;99.90;;;;;;5034155;28;20191;-69
2022/10/19 09:34:33;;;;;;;14.17;10.10;;;-30.40;99.90;;;;;;5030465;28;20215;-74
2022/10/19 09:36:59;;;;;;;17.10;10.90;;;-34.10;99.90;;;;;;5030189;28;20224;-72
2022/10/19 09:39:27;;;;;;;16.80;10.70;;;-39.20;99.90;;;;;;5031382;28;20181;-74
2022/10/19 09:41:55;;;;;;;19.90;12.57;;;-34.90;99.90;;;;;;5031122;28;20183;-72
2022/10/19 09:44:26;;;;;;;32.03;11.13;;;-36.00;99.90;;;;;;5032328;28;20304;-73
2022/10/19 09:47:03;;;;;;;16.90;11.30;;;-40.00;99.90;;;;;;5028768;28;20245;-70
2022/10/19 09:49:40;;;;;;;15.67;10.33;;;-36.60;99.90;;;;;;5031584;28;20196;-72
2022/10/19 09:52:22;;;;;;;18.57;9.83;;;-33.10;99.90;;;;;;5032276;28;20189;-71
2022/10/19 09:55:03;;;;;;;18.20;10.43;;;-40.00;99.90;;;;;;5033558;28;20193;-77
2022/10/19 09:57:29;;;;;;;14.00;10.40;;;-40.00;99.90;;;;;;5031639;28;20673;-78
2022/10/19 09:59:55;;;;;;;21.30;11.83;;;-40.00;99.90;;;;;;5033716;28;20184;-78
2022/10/19 10:02:28;;;;;;;13.63;10.33;;;-40.00;99.90;;;;;;5029757;28;20261;-78
2022/10/19 10:05:02;;;;;;;17.50;11.00;;;-40.00;99.90;;;;;;5030827;28;20272;-78
2022/10/19 10:07:35;;;;;;;18.63;10.53;;;-40.00;99.90;;;;;;5029908;28;20278;-79
2022/10/19 10:10:09;;;;;;;23.83;10.30;;;-40.00;99.90;;;;;;5027492;28;20665;-81
2022/10/19 10:12:36;;;;;;;13.23;10.50;;;-40.00;99.90;;;;;;5030800;28;20242;-82
2022/10/19 10:15:06;;;;;;;20.67;11.53;;;-40.00;99.90;;;;;;5032544;28;20246;-75
2022/10/19 10:17:32;;;;;;;13.17;10.90;;;-40.00;99.90;;;;;;5031403;28;20208;-75
2022/10/19 10:19:58;;;;;;;21.73;11.30;;;-40.00;99.90;;;;;;5030092;28;20188;-70
2022/10/19 10:22:27;;;;;;;14.87;10.63;;;-40.00;99.90;;;;;;5027878;28;20195;-79
2022/10/19 10:24:55;;;;;;;16.07;10.33;;;-40.00;99.90;;;;;;5030846;28;20195;-74
2022/10/19 10:27:35;;;;;;;16.80;10.57;;;-40.00;99.90;;;;;;5028061;28;20199;-77
2022/10/19 10:30:07;;;;;;;18.00;10.90;;;-40.00;99.90;;;;;;5029708;28;20187;-71
2022/10/19 10:32:37;;;;;;;20.63;11.93;;;-40.00;99.90;;;;;;5030109;28;20192;-72
2022/10/19 10:35:16;;;;;;;27.53;12.90;;;-40.00;99.90;;;;;;5046666;28;20871;-71
2022/10/19 10:37:46;;;;;;;29.43;12.60;;;-40.00;99.90;;;;;;5029514;28;20226;-79
2022/10/19 10:40:23;;;;;;;21.20;11.00;;;-40.00;99.90;;;;;;5031449;28;20632;-73
2022/10/19 10:42:51;;;;;;;14.13;10.80;;;-40.00;99.90;;;;;;5029103;28;20558;-74
2022/10/19 10:45:31;;;;;;;16.23;10.37;;;-40.00;99.90;;;;;;5032709;28;20180;-71
2022/10/19 10:47:58;;;;;;;22.67;11.90;;;-40.00;99.90;;;;;;5036093;28;20185;-74
2022/10/19 10:50:34;;;;;;;16.83;10.43;;;-40.00;99.90;;;;;;5032155;28;20280;-75
2022/10/19 10:53:36;;;;;;;20.80;11.07;;;-40.00;99.90;;;;;;5027128;28;20176;-72
2022/10/19 10:56:05;;;;;;;15.97;10.90;;;-40.00;99.90;;;;;;5030036;28;20180;-75
2022/10/19 10:58:57;;;;;;;13.57;9.37;;;-40.00;99.90;;;;;;5026411;28;20613;-74
2022/10/19 11:01:28;;;;;;;12.70;8.83;;;-40.00;99.90;;;;;;5028070;28;20292;-81
2022/10/19 11:04:07;;;;;;;12.97;9.83;;;-40.00;99.90;;;;;;5029604;28;20189;-70
2022/10/19 11:06:39;;;;;;;15.63;9.63;;;-40.00;99.90;;;;;;5031980;28;20251;-76
2022/10/19 11:09:08;;;;;;;15.83;9.70;;;-40.00;99.90;;;;;;5032093;28;20546;-71
2022/10/19 11:11:38;;;;;;;16.30;10.00;;;-40.00;99.90;;;;;;5030111;28;20230;-72
2022/10/19 11:14:28;;;;;;;15.50;9.43;;;-40.00;99.90;;;;;;5031892;28;20202;-74
2022/10/19 11:17:03;;;;;;;22.70;11.70;;;-40.00;99.90;;;;;;5029007;28;20220;-70
2022/10/19 11:19:41;;;;;;;16.37;9.33;;;-40.00;99.90;;;;;;5026978;28;20199;-70
2022/10/19 11:22:19;;;;;;;13.67;8.67;;;-40.00;99.90;;;;;;5030074;28;20636;-70
2022/10/19 11:25:11;;;;;;;14.93;8.93;;;-40.00;99.90;;;;;;5032005;28;20233;-72
2022/10/19 11:28:01;;;;;;;11.53;8.97;;;-40.00;99.90;;;;;;5030085;28;20185;-71
2022/10/19 11:30:31;;;;;;;12.17;8.37;;;-40.00;99.90;;;;;;5030728;28;20486;-71
2022/10/19 11:33:09;;;;;;;13.00;9.33;;;-40.00;99.90;;;;;;5030948;28;20193;-72
2022/10/19 11:35:54;;;;;;;12.87;8.87;;;-40.00;99.90;;;;;;5030295;28;20193;-71
2022/10/19 11:38:38;;;;;;;16.13;8.80;;;-40.00;99.90;;;;;;5025779;28;20507;-77
2022/10/19 11:41:42;;;;;;;10.13;7.73;;;-40.00;99.90;;;;;;5029427;28;20176;-70
2022/10/19 11:44:45;;;;;;;12.53;8.43;;;-40.00;99.90;;;;;;5035739;28;20271;-73
2022/10/19 11:47:32;;;;;;;16.47;8.83;;;-40.00;99.90;;;;;;5026459;28;20271;-70
2022/10/19 11:50:12;;;;;;;13.70;8.87;;;-40.00;99.90;;;;;;5023184;28;20190;-71
2022/10/19 11:52:46;;;;;;;12.77;8.63;;;-40.00;99.90;;;;;;5031389;28;20199;-72
2022/10/19 11:55:47;;;;;;;13.63;9.63;;;-40.00;99.90;;;;;;5035179;28;20185;-77
2022/10/19 11:58:44;;;;;;;12.13;8.20;;;-40.00;99.90;;;;;;5031197;28;20582;-75
2022/10/19 12:01:22;;;;;;;14.70;8.40;;;-40.00;99.90;;;;;;5053721;28;20265;-75
2022/10/19 12:04:00;;;;;;;15.37;10.27;;;-40.00;99.90;;;;;;5023746;28;20189;-76
2022/10/19 12:06:44;;;;;;;16.10;7.53;;;-40.00;99.90;;;;;;5028758;28;20168;-71
2022/10/19 12:09:58;;;;;;;16.33;8.93;;;-40.00;99.90;;;;;;5029717;28;20216;-71
2022/10/19 12:12:29;;;;;;;13.60;8.23;;;-40.00;99.90;;;;;;5028048;28;20310;-76
2022/10/19 12:15:11;;;;;;;15.57;9.03;;;-40.00;99.90;;;;;;5027138;28;20235;-74
2022/10/19 12:17:40;;;;;;;20.70;9.43;;;-40.00;99.90;;;;;;5031249;28;20212;-76
2022/10/19 12:20:25;;;;;;;17.70;9.33;;;-40.00;99.90;;;;;;5030730;28;20223;-74
2022/10/19 12:22:51;;;;;;;18.33;8.37;;;-40.00;99.90;;;;;;5032796;28;20483;-85
2022/10/19 12:25:18;;;;;;;15.40;8.97;;;-40.00;99.90;;;;;;5017653;28;20181;-77
2022/10/19 12:27:47;;;;;;;16.20;7.87;;;-40.00;99.90;;;;;;5034929;28;20234;-77
2022/10/19 12:30:22;;;;;;;12.83;7.33;;;-40.00;99.90;;;;;;5021450;28;20577;-74
2022/10/19 12:33:18;;;;;;;10.90;7.33;;;-40.00;99.20;;;;;;5038962;28;20200;-73
2022/10/19 12:35:52;;;;;;;12.73;8.03;;;-40.00;97.40;;;;;;5036819;28;20181;-78
2022/10/19 12:38:52;;;;;;;15.63;7.67;;;-40.00;96.80;;;;;;5019927;28;20192;-74
2022/10/19 12:41:27;;;;;;;13.80;7.83;;;-40.00;95.20;;;;;;5021760;28;20250;-74
2022/10/19 12:44:07;;;;;;;10.97;7.37;;;-40.00;91.70;;;;;;5032587;28;20180;-71